Terminal Aerodrome Forecast
Issued by NWS Denver/Boulder, CO

Home | Current Version | Previous Version | Text Only | Print | Product List | Glossary On
Versions: 1 2 3 4 5 6 7 8 9 10 11 12 13 14 15 16 17 18 19 20 21 22 23 24 25 26 27 28 29 30 31 32 33 34 35 36 37 38 39 40 41 42 43 44 45 46 47 48 49 50
000
FTUS45 KBOU 271533 AAB
TAFDEN
TAF AMD
KDEN 271533Z 2716/2818 36007KT 3SM BR OVC005
      TEMPO 2716/2718 2SM -DZ BR
     FM271900 02008KT P6SM SCT006 OVC010
     FM272200 03008KT P6SM SCT012 OVC020
     FM280000 36005KT P6SM SCT025 BKN040
     FM280600 23005KT P6SM SCT040
      TEMPO 2810/2814 1/2SM FG BKN004=

USA.gov is the U.S. government's official web portal to all federal, state and local government web resources and services.